Notting Hill, United Kingdom
Current Conditions -  °F | °C
As of 7:50 AM on Monday 24 Nov 2014 (Local Time) from EGWU Reporting Station
Light Fog Light Fog  
Wind Chill: 32°   Ceiling: 25000
Heat Index: 32°   Visibility: 6mi
Dew Point: 30°   Wind: 2mph
Humidity: 93%   Direction: 310°NW
Pressure: 30.3"   Gusts: NA
Location:  51.52°N, 0.2°W
Report Text: EGWU 240750Z 31002KT 9999 MIFG FEW002 BKN250 M00/M01 Q1026 BLU NOSIG
Loading
Personal Weather Stations






























Interactive Weather Map New forecast layout! Learn more

10-Day Weather Forecast

Advertisements
Track Severe Weather on mobile